sensor_id;sensor_type;location;lat;lon;timestamp;P1;durP1;ratioP1;P2;durP2;ratioP2
10309;SDS011;5200;43.236;27.986;2023-06-14T00:02:19;1.60;;;1.48;;
10309;SDS011;5200;43.236;27.986;2023-06-14T00:04:46;2.15;;;1.95;;
10309;SDS011;5200;43.236;27.986;2023-06-14T00:07:13;2.90;;;1.90;;
10309;SDS011;5200;43.236;27.986;2023-06-14T00:09:41;1.80;;;1.70;;
10309;SDS011;5200;43.236;27.986;2023-06-14T00:12:14;2.30;;;2.00;;
10309;SDS011;5200;43.236;27.986;2023-06-14T00:14:46;2.05;;;1.95;;
10309;SDS011;5200;43.236;27.986;2023-06-14T00:17:16;2.17;;;1.98;;
10309;SDS011;5200;43.236;27.986;2023-06-14T00:19:43;2.83;;;1.60;;
10309;SDS011;5200;43.236;27.986;2023-06-14T00:22:11;2.28;;;1.98;;
10309;SDS011;5200;43.236;27.986;2023-06-14T00:24:43;2.28;;;2.13;;
10309;SDS011;5200;43.236;27.986;2023-06-14T00:27:12;4.72;;;1.75;;
10309;SDS011;5200;43.236;27.986;2023-06-14T00:29:40;2.00;;;1.90;;
10309;SDS011;5200;43.236;27.986;2023-06-14T00:32:08;1.92;;;1.83;;
10309;SDS011;5200;43.236;27.986;2023-06-14T00:34:43;3.65;;;1.92;;
10309;SDS011;5200;43.236;27.986;2023-06-14T00:37:10;2.30;;;2.13;;
10309;SDS011;5200;43.236;27.986;2023-06-14T00:39:37;2.58;;;2.10;;
10309;SDS011;5200;43.236;27.986;2023-06-14T00:42:04;2.03;;;1.90;;
10309;SDS011;5200;43.236;27.986;2023-06-14T00:44:34;1.88;;;1.75;;
10309;SDS011;5200;43.236;27.986;2023-06-14T00:47:01;2.20;;;2.00;;
10309;SDS011;5200;43.236;27.986;2023-06-14T00:49:33;2.50;;;2.15;;
10309;SDS011;5200;43.236;27.986;2023-06-14T00:52:03;2.92;;;1.70;;
10309;SDS011;5200;43.236;27.986;2023-06-14T00:54:37;2.35;;;2.15;;
10309;SDS011;5200;43.236;27.986;2023-06-14T00:57:07;2.03;;;1.92;;
10309;SDS011;5200;43.236;27.986;2023-06-14T00:59:42;5.25;;;2.22;;
10309;SDS011;5200;43.236;27.986;2023-06-14T01:02:11;1.67;;;1.58;;
10309;SDS011;5200;43.236;27.986;2023-06-14T01:04:40;2.63;;;2.20;;
10309;SDS011;5200;43.236;27.986;2023-06-14T01:07:11;4.10;;;2.10;;
10309;SDS011;5200;43.236;27.986;2023-06-14T01:09:54;1.90;;;1.70;;
10309;SDS011;5200;43.236;27.986;2023-06-14T01:12:35;2.35;;;2.00;;
10309;SDS011;5200;43.236;27.986;2023-06-14T01:15:10;2.38;;;2.15;;
10309;SDS011;5200;43.236;27.986;2023-06-14T01:17:39;4.70;;;2.17;;
10309;SDS011;5200;43.236;27.986;2023-06-14T01:20:10;3.90;;;1.95;;
10309;SDS011;5200;43.236;27.986;2023-06-14T01:22:45;2.83;;;2.50;;
10309;SDS011;5200;43.236;27.986;2023-06-14T01:25:17;3.10;;;2.50;;
10309;SDS011;5200;43.236;27.986;2023-06-14T01:27:46;5.82;;;2.50;;
10309;SDS011;5200;43.236;27.986;2023-06-14T01:30:15;3.00;;;2.10;;
10309;SDS011;5200;43.236;27.986;2023-06-14T01:32:44;2.92;;;1.90;;
10309;SDS011;5200;43.236;27.986;2023-06-14T01:35:13;6.95;;;2.50;;
10309;SDS011;5200;43.236;27.986;2023-06-14T01:37:40;2.97;;;2.70;;
10309;SDS011;5200;43.236;27.986;2023-06-14T01:40:10;3.85;;;3.08;;
10309;SDS011;5200;43.236;27.986;2023-06-14T01:42:39;3.80;;;2.20;;
10309;SDS011;5200;43.236;27.986;2023-06-14T01:45:07;3.25;;;2.95;;
10309;SDS011;5200;43.236;27.986;2023-06-14T01:47:35;3.63;;;2.83;;
10309;SDS011;5200;43.236;27.986;2023-06-14T01:50:02;2.92;;;2.58;;
10309;SDS011;5200;43.236;27.986;2023-06-14T01:52:30;2.65;;;2.42;;
10309;SDS011;5200;43.236;27.986;2023-06-14T01:54:57;3.15;;;2.85;;
10309;SDS011;5200;43.236;27.986;2023-06-14T01:57:30;3.90;;;2.67;;
10309;SDS011;5200;43.236;27.986;2023-06-14T01:59:57;7.10;;;2.83;;
10309;SDS011;5200;43.236;27.986;2023-06-14T02:02:24;3.35;;;2.70;;
10309;SDS011;5200;43.236;27.986;2023-06-14T02:04:51;2.85;;;2.60;;
10309;SDS011;5200;43.236;27.986;2023-06-14T02:07:18;2.67;;;2.47;;
10309;SDS011;5200;43.236;27.986;2023-06-14T02:09:47;4.55;;;2.85;;
10309;SDS011;5200;43.236;27.986;2023-06-14T02:12:14;4.10;;;2.80;;
10309;SDS011;5200;43.236;27.986;2023-06-14T02:14:42;2.50;;;2.30;;
10309;SDS011;5200;43.236;27.986;2023-06-14T02:17:09;6.05;;;2.80;;
10309;SDS011;5200;43.236;27.986;2023-06-14T02:19:37;4.10;;;2.92;;
10309;SDS011;5200;43.236;27.986;2023-06-14T02:22:05;3.20;;;2.53;;
10309;SDS011;5200;43.236;27.986;2023-06-14T02:24:37;4.93;;;2.80;;
10309;SDS011;5200;43.236;27.986;2023-06-14T02:27:06;2.80;;;2.60;;
10309;SDS011;5200;43.236;27.986;2023-06-14T02:29:37;2.78;;;2.58;;
10309;SDS011;5200;43.236;27.986;2023-06-14T02:32:06;2.90;;;2.70;;
10309;SDS011;5200;43.236;27.986;2023-06-14T02:34:34;3.25;;;2.95;;
10309;SDS011;5200;43.236;27.986;2023-06-14T02:37:01;3.10;;;2.67;;
10309;SDS011;5200;43.236;27.986;2023-06-14T02:39:31;3.45;;;3.15;;
10309;SDS011;5200;43.236;27.986;2023-06-14T02:41:58;3.25;;;2.80;;
10309;SDS011;5200;43.236;27.986;2023-06-14T02:44:25;7.03;;;2.90;;
10309;SDS011;5200;43.236;27.986;2023-06-14T02:46:53;3.60;;;3.00;;
10309;SDS011;5200;43.236;27.986;2023-06-14T02:49:24;3.30;;;2.72;;
10309;SDS011;5200;43.236;27.986;2023-06-14T02:51:51;3.60;;;2.72;;
10309;SDS011;5200;43.236;27.986;2023-06-14T02:54:18;3.33;;;2.92;;
10309;SDS011;5200;43.236;27.986;2023-06-14T02:56:45;3.45;;;3.15;;
10309;SDS011;5200;43.236;27.986;2023-06-14T02:59:15;2.97;;;2.67;;
10309;SDS011;5200;43.236;27.986;2023-06-14T03:01:42;2.65;;;2.45;;
10309;SDS011;5200;43.236;27.986;2023-06-14T03:04:10;6.88;;;3.28;;
10309;SDS011;5200;43.236;27.986;2023-06-14T03:06:41;3.55;;;2.40;;
10309;SDS011;5200;43.236;27.986;2023-06-14T03:09:09;5.35;;;3.08;;
10309;SDS011;5200;43.236;27.986;2023-06-14T03:11:44;5.43;;;2.88;;
10309;SDS011;5200;43.236;27.986;2023-06-14T03:14:11;3.13;;;2.70;;
10309;SDS011;5200;43.236;27.986;2023-06-14T03:16:38;3.00;;;2.80;;
10309;SDS011;5200;43.236;27.986;2023-06-14T03:19:08;4.00;;;2.78;;
10309;SDS011;5200;43.236;27.986;2023-06-14T03:21:46;4.28;;;2.47;;
10309;SDS011;5200;43.236;27.986;2023-06-14T03:24:24;3.13;;;2.60;;
10309;SDS011;5200;43.236;27.986;2023-06-14T03:27:14;4.63;;;2.53;;
10309;SDS011;5200;43.236;27.986;2023-06-14T03:29:47;3.72;;;3.08;;
10309;SDS011;5200;43.236;27.986;2023-06-14T03:32:24;3.35;;;2.75;;
10309;SDS011;5200;43.236;27.986;2023-06-14T03:35:20;2.60;;;2.40;;
10309;SDS011;5200;43.236;27.986;2023-06-14T03:38:25;3.45;;;2.67;;
10309;SDS011;5200;43.236;27.986;2023-06-14T03:41:04;2.67;;;2.45;;
10309;SDS011;5200;43.236;27.986;2023-06-14T03:43:35;5.30;;;2.58;;
10309;SDS011;5200;43.236;27.986;2023-06-14T03:46:24;2.65;;;2.45;;
10309;SDS011;5200;43.236;27.986;2023-06-14T03:49:09;3.05;;;2.70;;
10309;SDS011;5200;43.236;27.986;2023-06-14T03:58:05;2.90;;;2.55;;
10309;SDS011;5200;43.236;27.986;2023-06-14T04:00:46;2.30;;;2.10;;
10309;SDS011;5200;43.236;27.986;2023-06-14T04:04:06;3.38;;;2.78;;
10309;SDS011;5200;43.236;27.986;2023-06-14T04:06:57;4.50;;;2.35;;
10309;SDS011;5200;43.236;27.986;2023-06-14T04:09:29;3.35;;;2.70;;
10309;SDS011;5200;43.236;27.986;2023-06-14T04:12:31;2.53;;;2.33;;
10309;SDS011;5200;43.236;27.986;2023-06-14T04:15:08;3.17;;;2.30;;
10309;SDS011;5200;43.236;27.986;2023-06-14T04:20:59;3.15;;;2.30;;
10309;SDS011;5200;43.236;27.986;2023-06-14T04:23:32;4.47;;;2.22;;
10309;SDS011;5200;43.236;27.986;2023-06-14T04:26:20;2.80;;;2.45;;
10309;SDS011;5200;43.236;27.986;2023-06-14T04:28:51;4.80;;;2.92;;
10309;SDS011;5200;43.236;27.986;2023-06-14T04:31:19;3.30;;;2.40;;
10309;SDS011;5200;43.236;27.986;2023-06-14T04:33:46;3.55;;;2.80;;
10309;SDS011;5200;43.236;27.986;2023-06-14T04:36:18;3.00;;;2.38;;
10309;SDS011;5200;43.236;27.986;2023-06-14T04:38:54;2.92;;;2.25;;
10309;SDS011;5200;43.236;27.986;2023-06-14T04:41:21;2.70;;;2.50;;
10309;SDS011;5200;43.236;27.986;2023-06-14T04:44:05;2.50;;;2.25;;
10309;SDS011;5200;43.236;27.986;2023-06-14T04:46:51;2.70;;;2.50;;
10309;SDS011;5200;43.236;27.986;2023-06-14T04:49:30;2.65;;;2.30;;
10309;SDS011;5200;43.236;27.986;2023-06-14T04:52:38;2.70;;;2.50;;
10309;SDS011;5200;43.236;27.986;2023-06-14T04:58:14;3.17;;;2.25;;
10309;SDS011;5200;43.236;27.986;2023-06-14T05:00:53;5.28;;;3.13;;
10309;SDS011;5200;43.236;27.986;2023-06-14T05:03:37;2.80;;;2.42;;
10309;SDS011;5200;43.236;27.986;2023-06-14T05:06:07;4.75;;;2.70;;
10309;SDS011;5200;43.236;27.986;2023-06-14T05:08:35;3.35;;;2.45;;
10309;SDS011;5200;43.236;27.986;2023-06-14T05:11:02;4.50;;;2.30;;
10309;SDS011;5200;43.236;27.986;2023-06-14T05:13:32;3.58;;;2.45;;
10309;SDS011;5200;43.236;27.986;2023-06-14T05:16:05;2.70;;;2.30;;
10309;SDS011;5200;43.236;27.986;2023-06-14T05:18:54;2.90;;;2.65;;
10309;SDS011;5200;43.236;27.986;2023-06-14T05:21:21;2.92;;;2.72;;
10309;SDS011;5200;43.236;27.986;2023-06-14T05:23:51;2.90;;;2.65;;
10309;SDS011;5200;43.236;27.986;2023-06-14T05:26:21;3.10;;;2.80;;
10309;SDS011;5200;43.236;27.986;2023-06-14T05:28:53;4.20;;;3.10;;
10309;SDS011;5200;43.236;27.986;2023-06-14T05:31:23;4.55;;;2.95;;
10309;SDS011;5200;43.236;27.986;2023-06-14T05:33:53;6.35;;;3.17;;
10309;SDS011;5200;43.236;27.986;2023-06-14T05:36:26;3.28;;;2.97;;
10309;SDS011;5200;43.236;27.986;2023-06-14T05:38:57;4.28;;;3.20;;
10309;SDS011;5200;43.236;27.986;2023-06-14T05:41:30;4.22;;;3.22;;
10309;SDS011;5200;43.236;27.986;2023-06-14T05:44:14;3.17;;;2.55;;
10309;SDS011;5200;43.236;27.986;2023-06-14T05:46:51;3.00;;;2.70;;
10309;SDS011;5200;43.236;27.986;2023-06-14T05:49:33;5.45;;;2.80;;
10309;SDS011;5200;43.236;27.986;2023-06-14T05:52:02;2.50;;;2.30;;
10309;SDS011;5200;43.236;27.986;2023-06-14T05:54:30;2.85;;;2.50;;
10309;SDS011;5200;43.236;27.986;2023-06-14T05:57:01;2.90;;;2.63;;
10309;SDS011;5200;43.236;27.986;2023-06-14T05:59:30;5.30;;;2.40;;
10309;SDS011;5200;43.236;27.986;2023-06-14T06:07:54;2.95;;;2.75;;
10309;SDS011;5200;43.236;27.986;2023-06-14T06:10:37;2.55;;;2.33;;
10309;SDS011;5200;43.236;27.986;2023-06-14T06:13:22;2.30;;;2.10;;
10309;SDS011;5200;43.236;27.986;2023-06-14T06:15:50;3.00;;;2.00;;
10309;SDS011;5200;43.236;27.986;2023-06-14T06:18:20;3.60;;;2.10;;
10309;SDS011;5200;43.236;27.986;2023-06-14T06:21:05;3.45;;;2.22;;
10309;SDS011;5200;43.236;27.986;2023-06-14T06:23:55;3.10;;;1.65;;
10309;SDS011;5200;43.236;27.986;2023-06-14T06:26:22;2.00;;;1.80;;
10309;SDS011;5200;43.236;27.986;2023-06-14T06:28:58;2.20;;;2.00;;
10309;SDS011;5200;43.236;27.986;2023-06-14T06:31:31;2.15;;;1.98;;
10309;SDS011;5200;43.236;27.986;2023-06-14T06:34:00;2.53;;;1.80;;
10309;SDS011;5200;43.236;27.986;2023-06-14T06:36:27;2.10;;;1.88;;
10309;SDS011;5200;43.236;27.986;2023-06-14T06:39:02;2.10;;;1.77;;
10309;SDS011;5200;43.236;27.986;2023-06-14T06:41:34;1.70;;;1.60;;
10309;SDS011;5200;43.236;27.986;2023-06-14T06:44:18;2.70;;;1.70;;
10309;SDS011;5200;43.236;27.986;2023-06-14T06:46:57;1.70;;;1.60;;
10309;SDS011;5200;43.236;27.986;2023-06-14T06:49:39;1.80;;;1.70;;
10309;SDS011;5200;43.236;27.986;2023-06-14T06:52:07;1.60;;;1.50;;
10309;SDS011;5200;43.236;27.986;2023-06-14T06:54:34;1.80;;;1.70;;
10309;SDS011;5200;43.236;27.986;2023-06-14T06:57:03;3.05;;;1.90;;
10309;SDS011;5200;43.236;27.986;2023-06-14T06:59:37;7.25;;;2.10;;
10309;SDS011;5200;43.236;27.986;2023-06-14T07:02:04;1.63;;;1.52;;
10309;SDS011;5200;43.236;27.986;2023-06-14T07:04:32;2.67;;;2.03;;
10309;SDS011;5200;43.236;27.986;2023-06-14T07:07:03;2.20;;;2.00;;
10309;SDS011;5200;43.236;27.986;2023-06-14T07:09:30;1.90;;;1.65;;
10309;SDS011;5200;43.236;27.986;2023-06-14T07:12:03;1.85;;;1.73;;
10309;SDS011;5200;43.236;27.986;2023-06-14T07:14:37;2.20;;;1.70;;
10309;SDS011;5200;43.236;27.986;2023-06-14T07:17:04;2.15;;;2.00;;
10309;SDS011;5200;43.236;27.986;2023-06-14T07:19:31;1.67;;;1.58;;
10309;SDS011;5200;43.236;27.986;2023-06-14T07:21:58;4.70;;;1.80;;
10309;SDS011;5200;43.236;27.986;2023-06-14T07:24:32;2.10;;;1.65;;
10309;SDS011;5200;43.236;27.986;2023-06-14T07:27:01;1.73;;;1.63;;
10309;SDS011;5200;43.236;27.986;2023-06-14T07:29:31;2.30;;;2.10;;
10309;SDS011;5200;43.236;27.986;2023-06-14T07:32:04;2.03;;;1.83;;
10309;SDS011;5200;43.236;27.986;2023-06-14T07:34:32;2.13;;;1.95;;
10309;SDS011;5200;43.236;27.986;2023-06-14T07:37:03;2.60;;;1.63;;
10309;SDS011;5200;43.236;27.986;2023-06-14T07:39:30;1.90;;;1.50;;
10309;SDS011;5200;43.236;27.986;2023-06-14T07:42:08;1.52;;;1.42;;
10309;SDS011;5200;43.236;27.986;2023-06-14T07:44:36;2.35;;;1.65;;
10309;SDS011;5200;43.236;27.986;2023-06-14T07:47:03;3.38;;;1.90;;
10309;SDS011;5200;43.236;27.986;2023-06-14T07:49:37;1.80;;;1.70;;
10309;SDS011;5200;43.236;27.986;2023-06-14T07:52:11;1.60;;;1.50;;
10309;SDS011;5200;43.236;27.986;2023-06-14T07:54:38;1.83;;;1.67;;
10309;SDS011;5200;43.236;27.986;2023-06-14T07:57:08;1.77;;;1.67;;
10309;SDS011;5200;43.236;27.986;2023-06-14T07:59:41;1.95;;;1.75;;
10309;SDS011;5200;43.236;27.986;2023-06-14T08:02:18;1.90;;;1.80;;
10309;SDS011;5200;43.236;27.986;2023-06-14T08:04:56;1.63;;;1.52;;
10309;SDS011;5200;43.236;27.986;2023-06-14T08:07:36;2.08;;;1.77;;
10309;SDS011;5200;43.236;27.986;2023-06-14T08:10:27;1.63;;;1.50;;
10309;SDS011;5200;43.236;27.986;2023-06-14T08:13:01;1.65;;;1.55;;
10309;SDS011;5200;43.236;27.986;2023-06-14T08:15:43;1.50;;;1.40;;
10309;SDS011;5200;43.236;27.986;2023-06-14T08:18:14;1.90;;;1.80;;
10309;SDS011;5200;43.236;27.986;2023-06-14T08:20:49;2.20;;;2.00;;
10309;SDS011;5200;43.236;27.986;2023-06-14T08:23:19;4.18;;;1.60;;
10309;SDS011;5200;43.236;27.986;2023-06-14T08:25:48;2.60;;;1.70;;
10309;SDS011;5200;43.236;27.986;2023-06-14T08:28:16;1.77;;;1.67;;
10309;SDS011;5200;43.236;27.986;2023-06-14T08:30:44;2.90;;;1.98;;
10309;SDS011;5200;43.236;27.986;2023-06-14T08:33:16;2.00;;;1.90;;
10309;SDS011;5200;43.236;27.986;2023-06-14T08:35:43;2.10;;;1.85;;
10309;SDS011;5200;43.236;27.986;2023-06-14T08:38:16;1.70;;;1.60;;
10309;SDS011;5200;43.236;27.986;2023-06-14T08:40:50;1.73;;;1.63;;
10309;SDS011;5200;43.236;27.986;2023-06-14T08:43:20;2.03;;;1.88;;
10309;SDS011;5200;43.236;27.986;2023-06-14T08:45:47;1.70;;;1.60;;
10309;SDS011;5200;43.236;27.986;2023-06-14T08:48:17;1.70;;;1.60;;
10309;SDS011;5200;43.236;27.986;2023-06-14T08:50:45;1.70;;;1.60;;
10309;SDS011;5200;43.236;27.986;2023-06-14T08:53:14;1.88;;;1.65;;
10309;SDS011;5200;43.236;27.986;2023-06-14T08:55:45;2.47;;;2.03;;
10309;SDS011;5200;43.236;27.986;2023-06-14T08:58:20;2.33;;;1.60;;
10309;SDS011;5200;43.236;27.986;2023-06-14T09:00:56;5.95;;;2.03;;
10309;SDS011;5200;43.236;27.986;2023-06-14T09:03:32;8.77;;;5.97;;
10309;SDS011;5200;43.236;27.986;2023-06-14T09:06:10;2.88;;;1.95;;
10309;SDS011;5200;43.236;27.986;2023-06-14T09:08:42;3.08;;;1.65;;
10309;SDS011;5200;43.236;27.986;2023-06-14T09:11:12;2.63;;;1.95;;
10309;SDS011;5200;43.236;27.986;2023-06-14T09:13:49;1.83;;;1.73;;
10309;SDS011;5200;43.236;27.986;2023-06-14T09:16:18;9.60;;;6.45;;
10309;SDS011;5200;43.236;27.986;2023-06-14T09:18:49;1.75;;;1.65;;
10309;SDS011;5200;43.236;27.986;2023-06-14T09:21:18;2.05;;;1.60;;
10309;SDS011;5200;43.236;27.986;2023-06-14T09:23:47;1.50;;;1.40;;
10309;SDS011;5200;43.236;27.986;2023-06-14T09:26:19;5.28;;;1.80;;
10309;SDS011;5200;43.236;27.986;2023-06-14T09:28:50;2.00;;;1.80;;
10309;SDS011;5200;43.236;27.986;2023-06-14T09:31:18;10.80;;;8.02;;
10309;SDS011;5200;43.236;27.986;2023-06-14T09:33:49;3.05;;;2.10;;
10309;SDS011;5200;43.236;27.986;2023-06-14T09:36:27;28.40;;;14.57;;
10309;SDS011;5200;43.236;27.986;2023-06-14T09:38:56;2.95;;;2.20;;
10309;SDS011;5200;43.236;27.986;2023-06-14T09:41:30;4.15;;;2.97;;
10309;SDS011;5200;43.236;27.986;2023-06-14T09:44:20;2.00;;;1.77;;
10309;SDS011;5200;43.236;27.986;2023-06-14T09:46:53;2.97;;;2.10;;
10309;SDS011;5200;43.236;27.986;2023-06-14T09:49:22;2.65;;;1.73;;
10309;SDS011;5200;43.236;27.986;2023-06-14T09:51:51;3.08;;;1.90;;
10309;SDS011;5200;43.236;27.986;2023-06-14T09:54:22;1.92;;;1.80;;
10309;SDS011;5200;43.236;27.986;2023-06-14T09:56:55;1.95;;;1.70;;
10309;SDS011;5200;43.236;27.986;2023-06-14T09:59:25;2.00;;;1.90;;
10309;SDS011;5200;43.236;27.986;2023-06-14T10:01:57;2.13;;;1.90;;
10309;SDS011;5200;43.236;27.986;2023-06-14T10:04:26;2.00;;;1.90;;
10309;SDS011;5200;43.236;27.986;2023-06-14T10:06:55;2.40;;;2.20;;
10309;SDS011;5200;43.236;27.986;2023-06-14T10:09:23;2.25;;;2.05;;
10309;SDS011;5200;43.236;27.986;2023-06-14T10:11:54;2.45;;;2.25;;
10309;SDS011;5200;43.236;27.986;2023-06-14T10:15:00;2.45;;;2.20;;
10309;SDS011;5200;43.236;27.986;2023-06-14T10:18:04;2.10;;;2.00;;
10309;SDS011;5200;43.236;27.986;2023-06-14T10:20:55;2.38;;;2.10;;
10309;SDS011;5200;43.236;27.986;2023-06-14T10:24:24;2.72;;;2.35;;
10309;SDS011;5200;43.236;27.986;2023-06-14T10:27:03;2.65;;;2.03;;
10309;SDS011;5200;43.236;27.986;2023-06-14T10:36:10;2.58;;;2.38;;
10309;SDS011;5200;43.236;27.986;2023-06-14T10:39:00;1.80;;;1.70;;
10309;SDS011;5200;43.236;27.986;2023-06-14T10:41:31;1.90;;;1.80;;
10309;SDS011;5200;43.236;27.986;2023-06-14T10:47:07;3.70;;;2.58;;
10309;SDS011;5200;43.236;27.986;2023-06-14T10:49:36;2.25;;;2.08;;
10309;SDS011;5200;43.236;27.986;2023-06-14T10:52:11;2.55;;;2.17;;
10309;SDS011;5200;43.236;27.986;2023-06-14T10:57:50;2.20;;;2.00;;
10309;SDS011;5200;43.236;27.986;2023-06-14T11:00:47;2.10;;;1.90;;
10309;SDS011;5200;43.236;27.986;2023-06-14T11:03:43;1.90;;;1.80;;
10309;SDS011;5200;43.236;27.986;2023-06-14T11:06:28;2.30;;;2.10;;
10309;SDS011;5200;43.236;27.986;2023-06-14T11:12:19;5.10;;;2.03;;
10309;SDS011;5200;43.236;27.986;2023-06-14T11:14:47;2.38;;;2.22;;
10309;SDS011;5200;43.236;27.986;2023-06-14T11:17:19;4.00;;;2.58;;
10309;SDS011;5200;43.236;27.986;2023-06-14T11:19:55;2.53;;;2.33;;
10309;SDS011;5200;43.236;27.986;2023-06-14T11:22:38;2.53;;;2.33;;
10309;SDS011;5200;43.236;27.986;2023-06-14T11:25:08;2.17;;;2.08;;
10309;SDS011;5200;43.236;27.986;2023-06-14T11:27:35;4.13;;;2.47;;
10309;SDS011;5200;43.236;27.986;2023-06-14T11:30:09;2.10;;;2.00;;
10309;SDS011;5200;43.236;27.986;2023-06-14T11:32:45;3.22;;;2.25;;
10309;SDS011;5200;43.236;27.986;2023-06-14T11:35:22;2.83;;;2.20;;
10309;SDS011;5200;43.236;27.986;2023-06-14T11:37:52;3.38;;;2.22;;
10309;SDS011;5200;43.236;27.986;2023-06-14T11:40:25;2.92;;;2.50;;
10309;SDS011;5200;43.236;27.986;2023-06-14T11:43:19;3.08;;;2.50;;
10309;SDS011;5200;43.236;27.986;2023-06-14T11:45:53;2.47;;;2.28;;
10309;SDS011;5200;43.236;27.986;2023-06-14T11:48:23;3.72;;;2.80;;
10309;SDS011;5200;43.236;27.986;2023-06-14T11:51:06;4.50;;;3.13;;
10309;SDS011;5200;43.236;27.986;2023-06-14T11:53:36;4.03;;;2.78;;
10309;SDS011;5200;43.236;27.986;2023-06-14T11:56:08;3.25;;;2.88;;
10309;SDS011;5200;43.236;27.986;2023-06-14T11:58:38;3.00;;;2.78;;
10309;SDS011;5200;43.236;27.986;2023-06-14T12:01:05;4.75;;;3.28;;
10309;SDS011;5200;43.236;27.986;2023-06-14T12:03:32;5.97;;;3.65;;
10309;SDS011;5200;43.236;27.986;2023-06-14T12:06:25;4.85;;;3.95;;
10309;SDS011;5200;43.236;27.986;2023-06-14T12:09:09;4.00;;;3.60;;
10309;SDS011;5200;43.236;27.986;2023-06-14T12:12:28;4.15;;;3.78;;
10309;SDS011;5200;43.236;27.986;2023-06-14T12:15:08;6.65;;;4.28;;
10309;SDS011;5200;43.236;27.986;2023-06-14T12:17:41;4.88;;;3.80;;
10309;SDS011;5200;43.236;27.986;2023-06-14T12:20:12;4.07;;;3.67;;
10309;SDS011;5200;43.236;27.986;2023-06-14T12:22:52;3.97;;;3.67;;
10309;SDS011;5200;43.236;27.986;2023-06-14T12:25:25;5.57;;;4.10;;
10309;SDS011;5200;43.236;27.986;2023-06-14T12:28:23;3.75;;;3.45;;
10309;SDS011;5200;43.236;27.986;2023-06-14T12:30:58;3.92;;;3.60;;
10309;SDS011;5200;43.236;27.986;2023-06-14T12:33:33;4.88;;;4.22;;
10309;SDS011;5200;43.236;27.986;2023-06-14T12:36:13;5.07;;;4.15;;
10309;SDS011;5200;43.236;27.986;2023-06-14T12:38:42;6.03;;;4.45;;
10309;SDS011;5200;43.236;27.986;2023-06-14T12:41:22;6.38;;;4.10;;
10309;SDS011;5200;43.236;27.986;2023-06-14T12:44:04;6.68;;;3.95;;
10309;SDS011;5200;43.236;27.986;2023-06-14T12:46:36;5.47;;;4.00;;
10309;SDS011;5200;43.236;27.986;2023-06-14T12:51:57;5.82;;;4.22;;
10309;SDS011;5200;43.236;27.986;2023-06-14T12:54:39;6.13;;;4.20;;
10309;SDS011;5200;43.236;27.986;2023-06-14T12:57:19;4.60;;;4.10;;
10309;SDS011;5200;43.236;27.986;2023-06-14T12:59:46;3.47;;;3.17;;
10309;SDS011;5200;43.236;27.986;2023-06-14T13:02:18;4.40;;;4.00;;
10309;SDS011;5200;43.236;27.986;2023-06-14T13:04:49;5.40;;;4.00;;
10309;SDS011;5200;43.236;27.986;2023-06-14T13:07:20;5.68;;;3.85;;
10309;SDS011;5200;43.236;27.986;2023-06-14T13:09:53;5.85;;;4.22;;
10309;SDS011;5200;43.236;27.986;2023-06-14T13:12:32;5.45;;;4.55;;
10309;SDS011;5200;43.236;27.986;2023-06-14T13:15:05;4.70;;;3.88;;
10309;SDS011;5200;43.236;27.986;2023-06-14T13:17:34;4.20;;;3.80;;
10309;SDS011;5200;43.236;27.986;2023-06-14T13:20:03;4.45;;;4.00;;
10309;SDS011;5200;43.236;27.986;2023-06-14T13:22:35;5.35;;;4.25;;
10309;SDS011;5200;43.236;27.986;2023-06-14T13:25:09;5.13;;;4.22;;
10309;SDS011;5200;43.236;27.986;2023-06-14T13:27:38;7.13;;;4.53;;
10309;SDS011;5200;43.236;27.986;2023-06-14T13:30:13;5.00;;;4.60;;
10309;SDS011;5200;43.236;27.986;2023-06-14T13:32:40;6.53;;;4.70;;
10309;SDS011;5200;43.236;27.986;2023-06-14T13:35:08;7.40;;;4.20;;
10309;SDS011;5200;43.236;27.986;2023-06-14T13:37:35;5.47;;;4.57;;
10309;SDS011;5200;43.236;27.986;2023-06-14T13:42:56;5.40;;;4.38;;
10309;SDS011;5200;43.236;27.986;2023-06-14T13:45:27;5.43;;;4.20;;
10309;SDS011;5200;43.236;27.986;2023-06-14T13:48:07;6.70;;;4.45;;
10309;SDS011;5200;43.236;27.986;2023-06-14T13:50:40;4.90;;;4.22;;
10309;SDS011;5200;43.236;27.986;2023-06-14T13:53:07;5.28;;;4.40;;
10309;SDS011;5200;43.236;27.986;2023-06-14T13:55:43;5.82;;;4.82;;
10309;SDS011;5200;43.236;27.986;2023-06-14T13:58:22;5.78;;;4.00;;
10309;SDS011;5200;43.236;27.986;2023-06-14T14:01:34;6.78;;;4.85;;
10309;SDS011;5200;43.236;27.986;2023-06-14T14:04:10;6.00;;;4.07;;
10309;SDS011;5200;43.236;27.986;2023-06-14T14:06:43;5.68;;;4.30;;
10309;SDS011;5200;43.236;27.986;2023-06-14T14:09:30;4.70;;;4.30;;
10309;SDS011;5200;43.236;27.986;2023-06-14T14:12:19;7.32;;;4.43;;
10309;SDS011;5200;43.236;27.986;2023-06-14T14:18:10;5.10;;;4.60;;
10309;SDS011;5200;43.236;27.986;2023-06-14T14:21:04;5.28;;;4.78;;
10309;SDS011;5200;43.236;27.986;2023-06-14T14:23:48;5.80;;;5.30;;
10309;SDS011;5200;43.236;27.986;2023-06-14T14:26:45;5.47;;;4.97;;
10309;SDS011;5200;43.236;27.986;2023-06-14T14:29:22;5.72;;;5.15;;
10309;SDS011;5200;43.236;27.986;2023-06-14T14:31:57;6.00;;;5.40;;
10309;SDS011;5200;43.236;27.986;2023-06-14T14:37:57;5.72;;;4.85;;
10309;SDS011;5200;43.236;27.986;2023-06-14T14:42:07;5.53;;;5.03;;
10309;SDS011;5200;43.236;27.986;2023-06-14T14:43:45;7.60;;;5.10;;
10309;SDS011;5200;43.236;27.986;2023-06-14T14:50:09;6.03;;;5.40;;
10309;SDS011;5200;43.236;27.986;2023-06-14T14:53:01;6.47;;;5.80;;
10309;SDS011;5200;43.236;27.986;2023-06-14T14:55:31;5.47;;;4.97;;
10309;SDS011;5200;43.236;27.986;2023-06-14T14:58:13;7.80;;;5.70;;
10309;SDS011;5200;43.236;27.986;2023-06-14T15:00:46;6.25;;;5.32;;
10309;SDS011;5200;43.236;27.986;2023-06-14T15:06:27;7.75;;;6.45;;
10309;SDS011;5200;43.236;27.986;2023-06-14T15:09:02;7.47;;;5.60;;
10309;SDS011;5200;43.236;27.986;2023-06-14T15:15:05;6.00;;;5.40;;
10309;SDS011;5200;43.236;27.986;2023-06-14T15:17:39;6.32;;;5.70;;
10309;SDS011;5200;43.236;27.986;2023-06-14T15:23:03;7.00;;;5.65;;
10309;SDS011;5200;43.236;27.986;2023-06-14T15:28:33;7.88;;;6.20;;
10309;SDS011;5200;43.236;27.986;2023-06-14T15:32:25;6.45;;;5.70;;
10309;SDS011;5200;43.236;27.986;2023-06-14T15:35:27;6.97;;;5.65;;
10309;SDS011;5200;43.236;27.986;2023-06-14T15:38:35;6.53;;;5.30;;
10309;SDS011;5200;43.236;27.986;2023-06-14T15:41:30;7.72;;;6.40;;
10309;SDS011;5200;43.236;27.986;2023-06-14T15:47:52;10.30;;;6.13;;
10309;SDS011;5200;43.236;27.986;2023-06-14T15:50:36;6.78;;;6.07;;
10309;SDS011;5200;43.236;27.986;2023-06-14T15:56:12;8.98;;;6.00;;
10309;SDS011;5200;43.236;27.986;2023-06-14T15:59:06;8.45;;;6.25;;
10309;SDS011;5200;43.236;27.986;2023-06-14T16:01:45;7.55;;;5.93;;
10309;SDS011;5200;43.236;27.986;2023-06-14T16:04:17;7.47;;;6.60;;
10309;SDS011;5200;43.236;27.986;2023-06-14T16:07:40;9.32;;;7.22;;
10309;SDS011;5200;43.236;27.986;2023-06-14T16:10:07;9.82;;;6.30;;
10309;SDS011;5200;43.236;27.986;2023-06-14T16:12:34;10.30;;;6.50;;
10309;SDS011;5200;43.236;27.986;2023-06-14T16:15:01;8.45;;;7.07;;
10309;SDS011;5200;43.236;27.986;2023-06-14T16:17:28;6.80;;;5.88;;
10309;SDS011;5200;43.236;27.986;2023-06-14T16:19:55;8.57;;;5.80;;
10309;SDS011;5200;43.236;27.986;2023-06-14T16:22:21;7.00;;;6.30;;
10309;SDS011;5200;43.236;27.986;2023-06-14T16:24:50;8.70;;;6.53;;
10309;SDS011;5200;43.236;27.986;2023-06-14T16:27:17;10.55;;;6.07;;
10309;SDS011;5200;43.236;27.986;2023-06-14T16:29:44;9.98;;;6.68;;
10309;SDS011;5200;43.236;27.986;2023-06-14T16:32:10;6.85;;;6.15;;
10309;SDS011;5200;43.236;27.986;2023-06-14T16:34:37;6.43;;;5.45;;
10309;SDS011;5200;43.236;27.986;2023-06-14T16:37:04;8.20;;;6.20;;
10309;SDS011;5200;43.236;27.986;2023-06-14T16:39:31;9.35;;;6.70;;
10309;SDS011;5200;43.236;27.986;2023-06-14T16:41:59;11.35;;;6.80;;
10309;SDS011;5200;43.236;27.986;2023-06-14T16:44:26;9.77;;;6.55;;